Terminal Aerodrome Forecast
Issued by NWS

Home | Current Version | Previous Version | Graphics & Text | Print | Product List | Glossary On
Versions: 1 2 3 4 5 6 7 8 9 10 11 12 13 14 15 16 17 18 19 20 21 22 23
000
FTUS43 KOAX 281439 AAA
TAFCDR
TAF AMD
KCDR 281439Z 2815/2912 06005KT 4SM -RA BR SCT005 OVC025
      TEMPO 2815/2819 11008KT 1 1/2SM -RA BKN007 OVC015
     FM281900 11012KT 1SM -RA OVC007=

USA.gov is the U.S. government's official web portal to all federal, state and local government web resources and services.